sensor_id;sensor_type;location;lat;lon;timestamp;pressure;altitude;pressure_sealevel;temperature;humidity
35519;BME280;21627;48.216;16.482;2024-01-07T00:00:23;98783.41;;;2.05;100.00
35519;BME280;21627;48.216;16.482;2024-01-07T00:02:51;98785.91;;;2.03;100.00
35519;BME280;21627;48.216;16.482;2024-01-07T00:05:18;98779.91;;;2.01;100.00
35519;BME280;21627;48.216;16.482;2024-01-07T00:07:45;98788.44;;;2.02;100.00
35519;BME280;21627;48.216;16.482;2024-01-07T00:10:12;98772.22;;;1.98;100.00
35519;BME280;21627;48.216;16.482;2024-01-07T00:12:39;98787.47;;;1.95;100.00
35519;BME280;21627;48.216;16.482;2024-01-07T00:15:07;98784.06;;;1.96;100.00
35519;BME280;21627;48.216;16.482;2024-01-07T00:17:34;98778.06;;;1.94;100.00
35519;BME280;21627;48.216;16.482;2024-01-07T00:20:01;98772.84;;;1.86;100.00
35519;BME280;21627;48.216;16.482;2024-01-07T00:22:30;98780.38;;;1.80;100.00
35519;BME280;21627;48.216;16.482;2024-01-07T00:24:57;98782.97;;;1.83;100.00
35519;BME280;21627;48.216;16.482;2024-01-07T00:27:24;98794.13;;;1.87;100.00
35519;BME280;21627;48.216;16.482;2024-01-07T00:29:51;98788.88;;;1.81;100.00
35519;BME280;21627;48.216;16.482;2024-01-07T00:32:18;98784.53;;;1.75;100.00
35519;BME280;21627;48.216;16.482;2024-01-07T00:34:45;98793.81;;;1.71;100.00
35519;BME280;21627;48.216;16.482;2024-01-07T00:37:13;98788.63;;;1.68;100.00
35519;BME280;21627;48.216;16.482;2024-01-07T00:39:40;98799.66;;;1.67;100.00
35519;BME280;21627;48.216;16.482;2024-01-07T00:42:09;98792.81;;;1.65;100.00
35519;BME280;21627;48.216;16.482;2024-01-07T00:44:37;98795.38;;;1.65;100.00
35519;BME280;21627;48.216;16.482;2024-01-07T00:47:05;98796.88;;;1.55;100.00
35519;BME280;21627;48.216;16.482;2024-01-07T00:49:32;98796.81;;;1.54;100.00
35519;BME280;21627;48.216;16.482;2024-01-07T00:51:59;98796.00;;;1.55;100.00
35519;BME280;21627;48.216;16.482;2024-01-07T00:54:26;98807.09;;;1.57;100.00
35519;BME280;21627;48.216;16.482;2024-01-07T00:56:53;98812.84;;;1.46;100.00
35519;BME280;21627;48.216;16.482;2024-01-07T00:59:20;98805.84;;;1.36;100.00
35519;BME280;21627;48.216;16.482;2024-01-07T01:01:47;98808.38;;;1.36;100.00
35519;BME280;21627;48.216;16.482;2024-01-07T01:04:15;98816.97;;;1.41;100.00
35519;BME280;21627;48.216;16.482;2024-01-07T01:06:42;98805.56;;;1.24;100.00
35519;BME280;21627;48.216;16.482;2024-01-07T01:09:09;98820.91;;;1.27;100.00
35519;BME280;21627;48.216;16.482;2024-01-07T01:11:37;98820.84;;;1.24;100.00
35519;BME280;21627;48.216;16.482;2024-01-07T01:14:04;98817.19;;;1.13;100.00
35519;BME280;21627;48.216;16.482;2024-01-07T01:16:31;98823.28;;;1.19;100.00
35519;BME280;21627;48.216;16.482;2024-01-07T01:18:58;98824.75;;;1.10;100.00
35519;BME280;21627;48.216;16.482;2024-01-07T01:21:25;98830.69;;;1.10;100.00
35519;BME280;21627;48.216;16.482;2024-01-07T01:23:54;98828.75;;;0.98;100.00
35519;BME280;21627;48.216;16.482;2024-01-07T01:26:21;98825.31;;;0.96;100.00
35519;BME280;21627;48.216;16.482;2024-01-07T01:28:49;98819.44;;;1.00;100.00
35519;BME280;21627;48.216;16.482;2024-01-07T01:31:16;98826.28;;;1.01;100.00
35519;BME280;21627;48.216;16.482;2024-01-07T01:33:43;98828.75;;;0.98;100.00
35519;BME280;21627;48.216;16.482;2024-01-07T01:36:10;98835.44;;;0.95;100.00
35519;BME280;21627;48.216;16.482;2024-01-07T01:38:38;98837.91;;;0.92;100.00
35519;BME280;21627;48.216;16.482;2024-01-07T01:41:05;98817.38;;;0.84;100.00
35519;BME280;21627;48.216;16.482;2024-01-07T01:43:32;98821.50;;;0.79;100.00
35519;BME280;21627;48.216;16.482;2024-01-07T01:45:59;98831.81;;;0.85;100.00
35519;BME280;21627;48.216;16.482;2024-01-07T01:48:27;98822.53;;;0.87;100.00
35519;BME280;21627;48.216;16.482;2024-01-07T01:50:55;98821.84;;;0.94;100.00
35519;BME280;21627;48.216;16.482;2024-01-07T01:53:26;98815.03;;;0.93;100.00
35519;BME280;21627;48.216;16.482;2024-01-07T01:55:56;98809.84;;;0.89;100.00
35519;BME280;21627;48.216;16.482;2024-01-07T01:58:24;98814.84;;;0.84;100.00
35519;BME280;21627;48.216;16.482;2024-01-07T02:00:52;98811.50;;;0.88;100.00
35519;BME280;21627;48.216;16.482;2024-01-07T02:03:19;98823.44;;;0.89;100.00
35519;BME280;21627;48.216;16.482;2024-01-07T02:05:48;98819.25;;;0.91;100.00
35519;BME280;21627;48.216;16.482;2024-01-07T02:08:18;98820.81;;;0.86;100.00
35519;BME280;21627;48.216;16.482;2024-01-07T02:10:46;98819.09;;;0.85;100.00
35519;BME280;21627;48.216;16.482;2024-01-07T02:13:13;98822.47;;;0.85;100.00
35519;BME280;21627;48.216;16.482;2024-01-07T02:15:40;98812.19;;;0.79;100.00
35519;BME280;21627;48.216;16.482;2024-01-07T02:18:07;98817.31;;;0.82;100.00
35519;BME280;21627;48.216;16.482;2024-01-07T02:20:34;98803.56;;;0.74;100.00
35519;BME280;21627;48.216;16.482;2024-01-07T02:23:03;98813.69;;;0.73;100.00
35519;BME280;21627;48.216;16.482;2024-01-07T02:25:40;98813.75;;;0.74;100.00
35519;BME280;21627;48.216;16.482;2024-01-07T02:28:07;98817.94;;;0.72;100.00
35519;BME280;21627;48.216;16.482;2024-01-07T02:30:34;98805.03;;;0.64;100.00
35519;BME280;21627;48.216;16.482;2024-01-07T02:33:02;98812.53;;;0.60;100.00
35519;BME280;21627;48.216;16.482;2024-01-07T02:35:31;98825.25;;;0.60;100.00
35519;BME280;21627;48.216;16.482;2024-01-07T02:37:58;98819.19;;;0.55;100.00
35519;BME280;21627;48.216;16.482;2024-01-07T02:40:25;98817.44;;;0.52;100.00
35519;BME280;21627;48.216;16.482;2024-01-07T02:42:52;98824.22;;;0.52;100.00
35519;BME280;21627;48.216;16.482;2024-01-07T02:45:19;98819.09;;;0.50;100.00
35519;BME280;21627;48.216;16.482;2024-01-07T02:47:47;98818.88;;;0.41;100.00
35519;BME280;21627;48.216;16.482;2024-01-07T02:50:14;98815.63;;;0.47;100.00
35519;BME280;21627;48.216;16.482;2024-01-07T02:52:41;98812.22;;;0.46;100.00
35519;BME280;21627;48.216;16.482;2024-01-07T02:55:09;98815.81;;;0.54;100.00
35519;BME280;21627;48.216;16.482;2024-01-07T02:57:36;98815.75;;;0.53;100.00
35519;BME280;21627;48.216;16.482;2024-01-07T03:00:04;98820.06;;;0.55;100.00
35519;BME280;21627;48.216;16.482;2024-01-07T03:02:31;98826.81;;;0.53;100.00
35519;BME280;21627;48.216;16.482;2024-01-07T03:04:59;98824.34;;;0.56;100.00
35519;BME280;21627;48.216;16.482;2024-01-07T03:07:26;98826.72;;;0.50;100.00
35519;BME280;21627;48.216;16.482;2024-01-07T03:09:53;98825.91;;;0.51;100.00
35519;BME280;21627;48.216;16.482;2024-01-07T03:12:20;98833.56;;;0.53;100.00
35519;BME280;21627;48.216;16.482;2024-01-07T03:14:47;98830.22;;;0.55;100.00
35519;BME280;21627;48.216;16.482;2024-01-07T03:17:14;98830.81;;;0.45;100.00
35519;BME280;21627;48.216;16.482;2024-01-07T03:19:44;98832.50;;;0.43;100.00
35519;BME280;21627;48.216;16.482;2024-01-07T03:22:11;98832.38;;;0.38;100.00
35519;BME280;21627;48.216;16.482;2024-01-07T03:24:38;98842.63;;;0.41;100.00
35519;BME280;21627;48.216;16.482;2024-01-07T03:27:05;98839.09;;;0.36;100.00
35519;BME280;21627;48.216;16.482;2024-01-07T03:29:32;98840.81;;;0.37;100.00
35519;BME280;21627;48.216;16.482;2024-01-07T03:31:59;98834.84;;;0.35;100.00
35519;BME280;21627;48.216;16.482;2024-01-07T03:34:27;98845.88;;;0.37;100.00
35519;BME280;21627;48.216;16.482;2024-01-07T03:36:54;98845.09;;;0.40;100.00
35519;BME280;21627;48.216;16.482;2024-01-07T03:39:21;98833.03;;;0.31;100.00
35519;BME280;21627;48.216;16.482;2024-01-07T03:41:48;98838.81;;;0.26;100.00
35519;BME280;21627;48.216;16.482;2024-01-07T03:44:15;98833.19;;;0.37;100.00
35519;BME280;21627;48.216;16.482;2024-01-07T03:46:42;98843.31;;;0.36;100.00
35519;BME280;21627;48.216;16.482;2024-01-07T03:49:09;98843.19;;;0.31;100.00
35519;BME280;21627;48.216;16.482;2024-01-07T03:51:37;98836.31;;;0.27;100.00
35519;BME280;21627;48.216;16.482;2024-01-07T03:54:04;98848.41;;;0.36;100.00
35519;BME280;21627;48.216;16.482;2024-01-07T03:56:31;98850.81;;;0.31;100.00
35519;BME280;21627;48.216;16.482;2024-01-07T03:58:58;98846.34;;;0.22;100.00
35519;BME280;21627;48.216;16.482;2024-01-07T04:01:25;98854.94;;;0.26;100.00
35519;BME280;21627;48.216;16.482;2024-01-07T04:03:52;98849.72;;;0.21;100.00
35519;BME280;21627;48.216;16.482;2024-01-07T04:06:20;98852.31;;;0.23;100.00
35519;BME280;21627;48.216;16.482;2024-01-07T04:08:47;98846.25;;;0.18;100.00
35519;BME280;21627;48.216;16.482;2024-01-07T04:11:14;98848.69;;;0.15;100.00
35519;BME280;21627;48.216;16.482;2024-01-07T04:13:41;98850.25;;;0.10;100.00
35519;BME280;21627;48.216;16.482;2024-01-07T04:16:21;98851.94;;;0.09;100.00
35519;BME280;21627;48.216;16.482;2024-01-07T04:18:48;98840.06;;;0.10;100.00
35519;BME280;21627;48.216;16.482;2024-01-07T04:21:20;98860.59;;;0.16;100.00
35519;BME280;21627;48.216;16.482;2024-01-07T04:23:47;98850.94;;;0.04;100.00
35519;BME280;21627;48.216;16.482;2024-01-07T04:26:14;98873.03;;;0.07;100.00
35519;BME280;21627;48.216;16.482;2024-01-07T04:28:42;98874.72;;;0.06;100.00
35519;BME280;21627;48.216;16.482;2024-01-07T04:31:09;98871.34;;;0.06;100.00
35519;BME280;21627;48.216;16.482;2024-01-07T04:33:37;98877.22;;;0.05;100.00
35519;BME280;21627;48.216;16.482;2024-01-07T04:36:04;98878.97;;;0.06;100.00
35519;BME280;21627;48.216;16.482;2024-01-07T04:38:32;98865.16;;;-0.03;100.00
35519;BME280;21627;48.216;16.482;2024-01-07T04:40:59;98869.50;;;0.02;100.00
35519;BME280;21627;48.216;16.482;2024-01-07T04:43:27;98875.09;;;-0.10;100.00
35519;BME280;21627;48.216;16.482;2024-01-07T04:45:55;98871.91;;;-0.05;100.00
35519;BME280;21627;48.216;16.482;2024-01-07T04:48:22;98868.38;;;-0.10;100.00
35519;BME280;21627;48.216;16.482;2024-01-07T04:50:49;98885.25;;;-0.10;100.00
35519;BME280;21627;48.216;16.482;2024-01-07T04:53:17;98887.91;;;-0.07;100.00
35519;BME280;21627;48.216;16.482;2024-01-07T04:55:44;98875.81;;;-0.16;100.00
35519;BME280;21627;48.216;16.482;2024-01-07T04:58:11;98884.16;;;-0.20;100.00
35519;BME280;21627;48.216;16.482;2024-01-07T05:00:38;98888.59;;;-0.13;100.00
35519;BME280;21627;48.216;16.482;2024-01-07T05:03:05;98880.75;;;-0.20;100.00
35519;BME280;21627;48.216;16.482;2024-01-07T05:05:33;98896.81;;;-0.22;100.00
35519;BME280;21627;48.216;16.482;2024-01-07T05:08:00;98891.78;;;-0.20;100.00
35519;BME280;21627;48.216;16.482;2024-01-07T05:10:27;98901.03;;;-0.22;100.00
35519;BME280;21627;48.216;16.482;2024-01-07T05:12:54;98906.19;;;-0.19;100.00
35519;BME280;21627;48.216;16.482;2024-01-07T05:15:22;98902.72;;;-0.23;100.00
35519;BME280;21627;48.216;16.482;2024-01-07T05:17:49;98903.53;;;-0.24;100.00
35519;BME280;21627;48.216;16.482;2024-01-07T05:20:16;98899.06;;;-0.31;100.00
35519;BME280;21627;48.216;16.482;2024-01-07T05:22:43;98902.66;;;-0.24;100.00
35519;BME280;21627;48.216;16.482;2024-01-07T05:25:11;98900.03;;;-0.27;100.00
35519;BME280;21627;48.216;16.482;2024-01-07T05:27:38;98906.06;;;-0.24;100.00
35519;BME280;21627;48.216;16.482;2024-01-07T05:30:06;98899.81;;;-0.35;100.00
35519;BME280;21627;48.216;16.482;2024-01-07T05:32:35;98901.53;;;-0.34;100.00
35519;BME280;21627;48.216;16.482;2024-01-07T05:35:02;98918.53;;;-0.31;100.00
35519;BME280;21627;48.216;16.482;2024-01-07T05:37:29;98917.78;;;-0.29;100.00
35519;BME280;21627;48.216;16.482;2024-01-07T05:39:56;98914.28;;;-0.32;100.00
35519;BME280;21627;48.216;16.482;2024-01-07T05:42:23;98940.53;;;-0.32;100.00
35519;BME280;21627;48.216;16.482;2024-01-07T05:44:51;98925.06;;;-0.39;100.00
35519;BME280;21627;48.216;16.482;2024-01-07T05:47:18;98930.47;;;-0.29;100.00
35519;BME280;21627;48.216;16.482;2024-01-07T05:49:45;98924.34;;;-0.35;100.00
35519;BME280;21627;48.216;16.482;2024-01-07T05:52:12;98916.53;;;-0.41;100.00
35519;BME280;21627;48.216;16.482;2024-01-07T05:54:40;98933.53;;;-0.39;100.00
35519;BME280;21627;48.216;16.482;2024-01-07T05:57:07;98934.25;;;-0.43;100.00
35519;BME280;21627;48.216;16.482;2024-01-07T05:59:34;98942.72;;;-0.44;100.00
35519;BME280;21627;48.216;16.482;2024-01-07T06:02:01;98951.81;;;-0.51;100.00
35519;BME280;21627;48.216;16.482;2024-01-07T06:04:28;98939.69;;;-0.59;100.00
35519;BME280;21627;48.216;16.482;2024-01-07T06:06:56;98959.34;;;-0.54;100.00
35519;BME280;21627;48.216;16.482;2024-01-07T06:09:23;98961.06;;;-0.53;100.00
35519;BME280;21627;48.216;16.482;2024-01-07T06:11:50;98961.88;;;-0.54;100.00
35519;BME280;21627;48.216;16.482;2024-01-07T06:14:17;98963.56;;;-0.54;100.00
35519;BME280;21627;48.216;16.482;2024-01-07T06:16:44;98953.31;;;-0.57;100.00
35519;BME280;21627;48.216;16.482;2024-01-07T06:19:12;98965.09;;;-0.59;100.00
35519;BME280;21627;48.216;16.482;2024-01-07T06:21:39;98966.25;;;-0.50;100.00
35519;BME280;21627;48.216;16.482;2024-01-07T06:24:08;98967.94;;;-0.50;100.00
35519;BME280;21627;48.216;16.482;2024-01-07T06:26:35;98956.69;;;-0.57;100.00
35519;BME280;21627;48.216;16.482;2024-01-07T06:29:03;98967.03;;;-0.51;100.00
35519;BME280;21627;48.216;16.482;2024-01-07T06:31:30;98972.84;;;-0.55;100.00
35519;BME280;21627;48.216;16.482;2024-01-07T06:33:57;98977.06;;;-0.55;100.00
35519;BME280;21627;48.216;16.482;2024-01-07T06:36:25;98966.78;;;-0.58;100.00
35519;BME280;21627;48.216;16.482;2024-01-07T06:38:52;98973.66;;;-0.56;100.00
35519;BME280;21627;48.216;16.482;2024-01-07T06:41:20;98973.47;;;-0.62;100.00
35519;BME280;21627;48.216;16.482;2024-01-07T06:43:47;98977.00;;;-0.57;100.00
35519;BME280;21627;48.216;16.482;2024-01-07T06:46:14;98979.09;;;-0.71;100.00
35519;BME280;21627;48.216;16.482;2024-01-07T06:48:41;98988.69;;;-0.62;100.00
35519;BME280;21627;48.216;16.482;2024-01-07T06:51:14;98989.41;;;-0.66;100.00
35519;BME280;21627;48.216;16.482;2024-01-07T06:53:42;98995.25;;;-0.69;100.00
35519;BME280;21627;48.216;16.482;2024-01-07T06:56:09;98994.44;;;-0.68;100.00
35519;BME280;21627;48.216;16.482;2024-01-07T06:58:36;99005.53;;;-0.66;100.00
35519;BME280;21627;48.216;16.482;2024-01-07T07:01:06;99007.31;;;-0.61;100.00
35519;BME280;21627;48.216;16.482;2024-01-07T07:03:33;99001.94;;;-0.71;100.00
35519;BME280;21627;48.216;16.482;2024-01-07T07:06:00;99012.22;;;-0.68;100.00
35519;BME280;21627;48.216;16.482;2024-01-07T07:08:27;99013.78;;;-0.71;100.00
35519;BME280;21627;48.216;16.482;2024-01-07T07:10:54;99022.38;;;-0.68;100.00
35519;BME280;21627;48.216;16.482;2024-01-07T07:13:21;99023.75;;;-0.77;100.00
35519;BME280;21627;48.216;16.482;2024-01-07T07:15:48;99032.16;;;-0.78;100.00
35519;BME280;21627;48.216;16.482;2024-01-07T07:18:16;99034.50;;;-0.84;100.00
35519;BME280;21627;48.216;16.482;2024-01-07T07:20:43;99022.72;;;-0.82;100.00
35519;BME280;21627;48.216;16.482;2024-01-07T07:23:10;99033.56;;;-0.87;100.00
35519;BME280;21627;48.216;16.482;2024-01-07T07:25:37;99036.53;;;-0.74;100.00
35519;BME280;21627;48.216;16.482;2024-01-07T07:28:04;99042.19;;;-0.81;100.00
35519;BME280;21627;48.216;16.482;2024-01-07T07:30:31;99037.72;;;-0.89;100.00
35519;BME280;21627;48.216;16.482;2024-01-07T07:32:59;99046.34;;;-0.83;100.00
35519;BME280;21627;48.216;16.482;2024-01-07T07:35:26;99045.34;;;-0.89;100.00
35519;BME280;21627;48.216;16.482;2024-01-07T07:37:53;99043.63;;;-0.90;100.00
35519;BME280;21627;48.216;16.482;2024-01-07T07:40:20;99052.94;;;-0.89;100.00
35519;BME280;21627;48.216;16.482;2024-01-07T07:42:48;99052.75;;;-0.95;100.00
35519;BME280;21627;48.216;16.482;2024-01-07T07:45:15;99053.88;;;-0.87;100.00
35519;BME280;21627;48.216;16.482;2024-01-07T07:47:44;99057.59;;;-1.01;100.00
35519;BME280;21627;48.216;16.482;2024-01-07T07:50:12;99059.44;;;-0.97;100.00
35519;BME280;21627;48.216;16.482;2024-01-07T07:52:44;99058.69;;;-0.94;100.00
35519;BME280;21627;48.216;16.482;2024-01-07T07:55:11;99052.81;;;-0.93;100.00
35519;BME280;21627;48.216;16.482;2024-01-07T07:57:39;99065.44;;;-0.95;100.00
35519;BME280;21627;48.216;16.482;2024-01-07T08:00:07;99065.38;;;-0.96;100.00
35519;BME280;21627;48.216;16.482;2024-01-07T08:02:35;99074.78;;;-0.94;100.00
35519;BME280;21627;48.216;16.482;2024-01-07T08:05:02;99078.31;;;-0.89;100.00
35519;BME280;21627;48.216;16.482;2024-01-07T08:07:29;99073.50;;;-0.81;100.00
35519;BME280;21627;48.216;16.482;2024-01-07T08:09:56;99082.03;;;-0.80;100.00
35519;BME280;21627;48.216;16.482;2024-01-07T08:12:24;99077.53;;;-0.88;100.00
35519;BME280;21627;48.216;16.482;2024-01-07T08:14:51;99098.78;;;-0.84;100.00
35519;BME280;21627;48.216;16.482;2024-01-07T08:17:18;99100.31;;;-0.89;100.00
35519;BME280;21627;48.216;16.482;2024-01-07T08:19:46;99099.53;;;-0.88;100.00
35519;BME280;21627;48.216;16.482;2024-01-07T08:22:13;99106.22;;;-0.90;100.00
35519;BME280;21627;48.216;16.482;2024-01-07T08:24:41;99097.50;;;-0.97;100.00
35519;BME280;21627;48.216;16.482;2024-01-07T08:27:09;99105.44;;;-0.88;100.00
35519;BME280;21627;48.216;16.482;2024-01-07T08:29:36;99105.09;;;-0.98;100.00
35519;BME280;21627;48.216;16.482;2024-01-07T08:32:04;99098.19;;;-1.01;100.00
35519;BME280;21627;48.216;16.482;2024-01-07T08:34:31;99119.59;;;-0.94;100.00
35519;BME280;21627;48.216;16.482;2024-01-07T08:36:58;99123.25;;;-0.86;100.00
35519;BME280;21627;48.216;16.482;2024-01-07T08:39:25;99134.28;;;-0.85;100.00
35519;BME280;21627;48.216;16.482;2024-01-07T08:41:55;99134.97;;;-0.90;100.00
35519;BME280;21627;48.216;16.482;2024-01-07T08:44:22;99129.53;;;-1.00;100.00
35519;BME280;21627;48.216;16.482;2024-01-07T08:46:49;99123.47;;;-1.04;100.00
35519;BME280;21627;48.216;16.482;2024-01-07T08:49:16;99131.25;;;-0.99;100.00
35519;BME280;21627;48.216;16.482;2024-01-07T08:51:44;99139.59;;;-1.02;100.00
35519;BME280;21627;48.216;16.482;2024-01-07T08:54:11;99145.63;;;-1.00;100.00
35519;BME280;21627;48.216;16.482;2024-01-07T08:56:38;99142.91;;;-1.04;100.00
35519;BME280;21627;48.216;16.482;2024-01-07T08:59:06;99151.53;;;-0.99;100.00
35519;BME280;21627;48.216;16.482;2024-01-07T09:01:33;99148.03;;;-1.03;100.00
35519;BME280;21627;48.216;16.482;2024-01-07T09:04:01;99149.81;;;-1.00;100.00
35519;BME280;21627;48.216;16.482;2024-01-07T09:06:28;99155.69;;;-1.01;100.00
35519;BME280;21627;48.216;16.482;2024-01-07T09:08:55;99161.63;;;-1.01;100.00
35519;BME280;21627;48.216;16.482;2024-01-07T09:11:23;99163.44;;;-0.98;100.00
35519;BME280;21627;48.216;16.482;2024-01-07T09:13:51;99168.50;;;-0.98;100.00
35519;BME280;21627;48.216;16.482;2024-01-07T09:16:18;99160.09;;;-0.97;100.00
35519;BME280;21627;48.216;16.482;2024-01-07T09:18:45;99141.56;;;-0.95;100.00
35519;BME280;21627;48.216;16.482;2024-01-07T09:21:13;99156.84;;;-0.93;100.00
35519;BME280;21627;48.216;16.482;2024-01-07T09:23:44;99162.78;;;-0.93;100.00
35519;BME280;21627;48.216;16.482;2024-01-07T09:26:11;99158.50;;;-0.94;100.00
35519;BME280;21627;48.216;16.482;2024-01-07T09:28:38;99168.78;;;-0.91;100.00
35519;BME280;21627;48.216;16.482;2024-01-07T09:31:06;99159.25;;;-0.96;100.00
35519;BME280;21627;48.216;16.482;2024-01-07T09:33:34;99168.91;;;-0.88;100.00
35519;BME280;21627;48.216;16.482;2024-01-07T09:36:01;99169.84;;;-0.84;100.00
35519;BME280;21627;48.216;16.482;2024-01-07T09:38:46;99174.06;;;-0.84;100.00
35519;BME280;21627;48.216;16.482;2024-01-07T09:41:13;99180.81;;;-0.85;100.00
35519;BME280;21627;48.216;16.482;2024-01-07T09:43:40;99184.31;;;-0.81;100.00
35519;BME280;21627;48.216;16.482;2024-01-07T09:46:08;99178.94;;;-0.91;100.00
35519;BME280;21627;48.216;16.482;2024-01-07T09:48:35;99171.31;;;-0.91;100.00
35519;BME280;21627;48.216;16.482;2024-01-07T09:51:04;99185.81;;;-0.88;100.00
35519;BME280;21627;48.216;16.482;2024-01-07T09:53:31;99178.13;;;-0.90;100.00
35519;BME280;21627;48.216;16.482;2024-01-07T09:56:25;99175.69;;;-0.87;100.00
35519;BME280;21627;48.216;16.482;2024-01-07T09:58:52;99177.47;;;-0.84;100.00
35519;BME280;21627;48.216;16.482;2024-01-07T10:01:19;99173.16;;;-0.87;100.00
35519;BME280;21627;48.216;16.482;2024-01-07T10:03:47;99171.19;;;-0.94;100.00
35519;BME280;21627;48.216;16.482;2024-01-07T10:06:18;99176.53;;;-0.86;100.00
35519;BME280;21627;48.216;16.482;2024-01-07T10:08:47;99183.63;;;-0.77;100.00
35519;BME280;21627;48.216;16.482;2024-01-07T10:11:14;99170.97;;;-0.76;100.00
35519;BME280;21627;48.216;16.482;2024-01-07T10:13:41;99181.03;;;-0.79;100.00
35519;BME280;21627;48.216;16.482;2024-01-07T10:16:11;99178.28;;;-0.85;100.00
35519;BME280;21627;48.216;16.482;2024-01-07T10:18:42;99185.84;;;-0.87;100.00
35519;BME280;21627;48.216;16.482;2024-01-07T10:21:09;99184.50;;;-0.77;100.00
35519;BME280;21627;48.216;16.482;2024-01-07T10:23:36;99177.91;;;-0.72;100.00
35519;BME280;21627;48.216;16.482;2024-01-07T10:26:04;99173.25;;;-0.83;100.00
35519;BME280;21627;48.216;16.482;2024-01-07T10:28:45;99177.63;;;-0.79;100.00
35519;BME280;21627;48.216;16.482;2024-01-07T10:31:13;99165.50;;;-0.88;100.00
35519;BME280;21627;48.216;16.482;2024-01-07T10:33:41;99179.84;;;-0.89;100.00
35519;BME280;21627;48.216;16.482;2024-01-07T10:36:09;99178.19;;;-0.88;100.00
35519;BME280;21627;48.216;16.482;2024-01-07T10:38:37;99183.38;;;-0.85;100.00
35519;BME280;21627;48.216;16.482;2024-01-07T10:41:11;99183.53;;;-0.80;100.00
35519;BME280;21627;48.216;16.482;2024-01-07T10:43:39;99188.72;;;-0.77;100.00
35519;BME280;21627;48.216;16.482;2024-01-07T10:46:09;99185.09;;;-0.84;100.00
35519;BME280;21627;48.216;16.482;2024-01-07T10:48:38;99187.50;;;-0.87;100.00
35519;BME280;21627;48.216;16.482;2024-01-07T10:51:10;99192.81;;;-0.81;100.00
35519;BME280;21627;48.216;16.482;2024-01-07T10:53:39;99183.41;;;-0.83;100.00
35519;BME280;21627;48.216;16.482;2024-01-07T10:56:11;99181.84;;;-0.80;100.00
35519;BME280;21627;48.216;16.482;2024-01-07T10:58:40;99181.47;;;-0.91;100.00
35519;BME280;21627;48.216;16.482;2024-01-07T11:01:09;99191.63;;;-0.91;100.00
35519;BME280;21627;48.216;16.482;2024-01-07T11:03:46;99191.38;;;-0.97;100.00
35519;BME280;21627;48.216;16.482;2024-01-07T11:06:43;99195.50;;;-1.00;100.00
35519;BME280;21627;48.216;16.482;2024-01-07T11:12:00;99189.66;;;-0.98;100.00
35519;BME280;21627;48.216;16.482;2024-01-07T11:14:39;99187.31;;;-0.93;100.00
35519;BME280;21627;48.216;16.482;2024-01-07T11:17:07;99171.94;;;-0.96;100.00
35519;BME280;21627;48.216;16.482;2024-01-07T11:19:38;99178.88;;;-0.92;100.00
35519;BME280;21627;48.216;16.482;2024-01-07T11:22:26;99177.19;;;-0.92;100.00
35519;BME280;21627;48.216;16.482;2024-01-07T11:24:58;99169.53;;;-0.93;100.00
35519;BME280;21627;48.216;16.482;2024-01-07T11:27:30;99179.78;;;-0.90;100.00
35519;BME280;21627;48.216;16.482;2024-01-07T11:30:07;99184.78;;;-0.93;100.00
35519;BME280;21627;48.216;16.482;2024-01-07T11:32:39;99181.91;;;-1.01;100.00
35519;BME280;21627;48.216;16.482;2024-01-07T11:35:07;99181.91;;;-1.01;100.00
35519;BME280;21627;48.216;16.482;2024-01-07T11:37:34;99174.47;;;-0.96;100.00
35519;BME280;21627;48.216;16.482;2024-01-07T11:40:06;99185.66;;;-0.91;100.00
35519;BME280;21627;48.216;16.482;2024-01-07T11:42:34;99185.09;;;-0.84;100.00
35519;BME280;21627;48.216;16.482;2024-01-07T11:45:02;99188.28;;;-0.90;100.00
35519;BME280;21627;48.216;16.482;2024-01-07T11:47:30;99190.25;;;-0.81;100.00
35519;BME280;21627;48.216;16.482;2024-01-07T11:49:57;99184.91;;;-0.89;100.00
35519;BME280;21627;48.216;16.482;2024-01-07T11:52:24;99180.44;;;-0.96;100.00
35519;BME280;21627;48.216;16.482;2024-01-07T11:54:52;99186.75;;;-0.84;100.00
35519;BME280;21627;48.216;16.482;2024-01-07T11:57:19;99183.13;;;-0.91;100.00
35519;BME280;21627;48.216;16.482;2024-01-07T11:59:46;99172.75;;;-0.97;100.00
35519;BME280;21627;48.216;16.482;2024-01-07T12:02:13;99189.78;;;-0.95;100.00
35519;BME280;21627;48.216;16.482;2024-01-07T12:04:42;99175.66;;;-0.88;100.00
35519;BME280;21627;48.216;16.482;2024-01-07T12:07:10;99175.31;;;-0.97;100.00
35519;BME280;21627;48.216;16.482;2024-01-07T12:09:38;99181.31;;;-0.95;100.00
35519;BME280;21627;48.216;16.482;2024-01-07T12:12:05;99177.09;;;-0.95;100.00
35519;BME280;21627;48.216;16.482;2024-01-07T12:14:33;99180.47;;;-0.94;100.00
35519;BME280;21627;48.216;16.482;2024-01-07T12:17:01;99188.34;;;-0.88;100.00
35519;BME280;21627;48.216;16.482;2024-01-07T12:19:28;99179.53;;;-0.98;100.00
35519;BME280;21627;48.216;16.482;2024-01-07T12:22:05;99190.63;;;-0.94;100.00
35519;BME280;21627;48.216;16.482;2024-01-07T12:24:33;99186.03;;;-1.04;100.00
35519;BME280;21627;48.216;16.482;2024-01-07T12:27:08;99192.72;;;-1.06;100.00
35519;BME280;21627;48.216;16.482;2024-01-07T12:29:35;99195.34;;;-1.03;100.00
35519;BME280;21627;48.216;16.482;2024-01-07T12:32:02;99177.84;;;-1.20;100.00
35519;BME280;21627;48.216;16.482;2024-01-07T12:34:30;99192.69;;;-1.08;100.00
35519;BME280;21627;48.216;16.482;2024-01-07T12:36:58;99190.53;;;-0.97;100.00
35519;BME280;21627;48.216;16.482;2024-01-07T12:39:26;99180.13;;;-1.03;100.00
35519;BME280;21627;48.216;16.482;2024-01-07T12:41:55;99180.09;;;-1.05;100.00
35519;BME280;21627;48.216;16.482;2024-01-07T12:44:27;99196.34;;;-1.00;100.00
35519;BME280;21627;48.216;16.482;2024-01-07T12:46:55;99197.28;;;-0.98;100.00
35519;BME280;21627;48.216;16.482;2024-01-07T12:49:22;99201.50;;;-0.98;100.00